LWSK/SKP METAR and TAF weather

Enter ICAO airport designator
Station Type Date Time Source
LWSK METAR 2019/10/23 20:30 UTC NOAA

LWSK 232030Z 00000KT CAVOK 10/04 Q1022 NOSIG


Station Type Date Time Source
LWSK Decoded METAR 2019/10/23 20:30 UTC NOAA

Skopje-Petrovec, Macedonia, The Republic of (LWSK) 41-58N 021-39E 239M
Oct 23, 2019 - 04:30 PM EDT / 2019.10.23 2030 UTC
Wind: Calm:0
Visibility: greater than 7 mile(s):0
Temperature: 50 F (10 C)
Dew Point: 39 F (4 C)
Relative Humidity: 66%
Pressure (altimeter): 30.18 in. Hg (1022 hPa)
ob: LWSK 232030Z 00000KT CAVOK 10/04 Q1022 NOSIG
cycle: 20

Station Type Date Time Source
LWSK TAF 2019/10/23 21:37 UTC NOAA

TAF LWSK 232030Z 2321/2421 VRB02KT CAVOK

Example: see airport list